sensor_id;sensor_type;location;lat;lon;timestamp;P1;durP1;ratioP1;P2;durP2;ratioP2
19780;SDS011;10050;55.492;13.506;2023-06-10T00:00:55;2.47;;;0.83;;
19780;SDS011;10050;55.492;13.506;2023-06-10T00:03:21;1.53;;;0.70;;
19780;SDS011;10050;55.492;13.506;2023-06-10T00:05:49;0.70;;;0.70;;
19780;SDS011;10050;55.492;13.506;2023-06-10T00:08:17;3.23;;;1.00;;
19780;SDS011;10050;55.492;13.506;2023-06-10T00:10:44;0.70;;;0.70;;
19780;SDS011;10050;55.492;13.506;2023-06-10T00:13:10;0.70;;;0.70;;
19780;SDS011;10050;55.492;13.506;2023-06-10T00:15:39;1.10;;;0.80;;
19780;SDS011;10050;55.492;13.506;2023-06-10T00:18:05;1.47;;;0.90;;
19780;SDS011;10050;55.492;13.506;2023-06-10T00:20:34;1.87;;;0.80;;
19780;SDS011;10050;55.492;13.506;2023-06-10T00:23:02;1.10;;;0.93;;
19780;SDS011;10050;55.492;13.506;2023-06-10T00:25:28;1.67;;;0.90;;
19780;SDS011;10050;55.492;13.506;2023-06-10T00:27:54;1.27;;;1.00;;
19780;SDS011;10050;55.492;13.506;2023-06-10T00:30:20;1.60;;;0.77;;
19780;SDS011;10050;55.492;13.506;2023-06-10T00:32:46;1.07;;;0.60;;
19780;SDS011;10050;55.492;13.506;2023-06-10T00:35:12;0.90;;;0.90;;
19780;SDS011;10050;55.492;13.506;2023-06-10T00:37:37;1.73;;;0.90;;
19780;SDS011;10050;55.492;13.506;2023-06-10T00:40:03;1.10;;;1.00;;
19780;SDS011;10050;55.492;13.506;2023-06-10T00:42:30;1.90;;;0.97;;
19780;SDS011;10050;55.492;13.506;2023-06-10T00:44:55;1.10;;;1.00;;
19780;SDS011;10050;55.492;13.506;2023-06-10T00:47:21;0.70;;;0.70;;
19780;SDS011;10050;55.492;13.506;2023-06-10T00:49:47;2.83;;;0.90;;
19780;SDS011;10050;55.492;13.506;2023-06-10T00:52:15;1.67;;;0.90;;
19780;SDS011;10050;55.492;13.506;2023-06-10T00:54:44;1.00;;;0.90;;
19780;SDS011;10050;55.492;13.506;2023-06-10T00:57:10;0.70;;;0.70;;
19780;SDS011;10050;55.492;13.506;2023-06-10T00:59:38;1.13;;;0.87;;
19780;SDS011;10050;55.492;13.506;2023-06-10T01:02:06;0.80;;;0.70;;
19780;SDS011;10050;55.492;13.506;2023-06-10T01:04:32;0.97;;;0.80;;
19780;SDS011;10050;55.492;13.506;2023-06-10T01:10:19;2.00;;;0.83;;
19780;SDS011;10050;55.492;13.506;2023-06-10T01:15:28;2.57;;;0.80;;
19780;SDS011;10050;55.492;13.506;2023-06-10T01:17:58;1.83;;;0.77;;
19780;SDS011;10050;55.492;13.506;2023-06-10T01:20:24;1.00;;;0.70;;
19780;SDS011;10050;55.492;13.506;2023-06-10T01:22:51;2.00;;;0.70;;
19780;SDS011;10050;55.492;13.506;2023-06-10T01:25:19;1.70;;;1.37;;
19780;SDS011;10050;55.492;13.506;2023-06-10T01:27:52;2.23;;;1.07;;
19780;SDS011;10050;55.492;13.506;2023-06-10T01:30:27;2.20;;;0.77;;
19780;SDS011;10050;55.492;13.506;2023-06-10T01:33:02;2.23;;;0.83;;
19780;SDS011;10050;55.492;13.506;2023-06-10T01:35:31;1.03;;;0.93;;
19780;SDS011;10050;55.492;13.506;2023-06-10T01:37:58;1.57;;;1.00;;
19780;SDS011;10050;55.492;13.506;2023-06-10T01:40:27;1.47;;;1.00;;
19780;SDS011;10050;55.492;13.506;2023-06-10T01:42:54;1.07;;;0.73;;
19780;SDS011;10050;55.492;13.506;2023-06-10T01:45:20;1.87;;;0.77;;
19780;SDS011;10050;55.492;13.506;2023-06-10T01:47:45;0.70;;;0.70;;
19780;SDS011;10050;55.492;13.506;2023-06-10T01:50:11;1.23;;;0.60;;
19780;SDS011;10050;55.492;13.506;2023-06-10T01:52:37;1.63;;;0.80;;
19780;SDS011;10050;55.492;13.506;2023-06-10T01:55:03;1.23;;;0.77;;
19780;SDS011;10050;55.492;13.506;2023-06-10T01:57:29;1.70;;;0.80;;
19780;SDS011;10050;55.492;13.506;2023-06-10T01:59:55;1.07;;;1.00;;
19780;SDS011;10050;55.492;13.506;2023-06-10T02:02:20;2.53;;;1.03;;
19780;SDS011;10050;55.492;13.506;2023-06-10T02:04:47;1.63;;;0.77;;
19780;SDS011;10050;55.492;13.506;2023-06-10T02:07:13;2.53;;;1.40;;
19780;SDS011;10050;55.492;13.506;2023-06-10T02:09:38;2.40;;;1.13;;
19780;SDS011;10050;55.492;13.506;2023-06-10T02:12:04;3.10;;;1.13;;
19780;SDS011;10050;55.492;13.506;2023-06-10T02:14:31;1.27;;;0.80;;
19780;SDS011;10050;55.492;13.506;2023-06-10T02:16:58;0.60;;;0.60;;
19780;SDS011;10050;55.492;13.506;2023-06-10T02:19:23;1.70;;;0.80;;
19780;SDS011;10050;55.492;13.506;2023-06-10T02:21:51;2.00;;;1.20;;
19780;SDS011;10050;55.492;13.506;2023-06-10T02:24:17;4.13;;;1.07;;
19780;SDS011;10050;55.492;13.506;2023-06-10T02:26:43;3.17;;;1.03;;
19780;SDS011;10050;55.492;13.506;2023-06-10T02:29:09;4.03;;;1.07;;
19780;SDS011;10050;55.492;13.506;2023-06-10T02:31:34;1.00;;;0.73;;
19780;SDS011;10050;55.492;13.506;2023-06-10T02:34:00;0.90;;;0.90;;
19780;SDS011;10050;55.492;13.506;2023-06-10T02:36:27;1.90;;;0.93;;
19780;SDS011;10050;55.492;13.506;2023-06-10T02:38:52;2.70;;;0.90;;
19780;SDS011;10050;55.492;13.506;2023-06-10T02:41:18;0.90;;;0.90;;
19780;SDS011;10050;55.492;13.506;2023-06-10T02:43:44;3.20;;;0.67;;
19780;SDS011;10050;55.492;13.506;2023-06-10T02:46:10;2.07;;;1.10;;
19780;SDS011;10050;55.492;13.506;2023-06-10T02:48:42;1.90;;;1.00;;
19780;SDS011;10050;55.492;13.506;2023-06-10T02:51:11;1.93;;;1.00;;
19780;SDS011;10050;55.492;13.506;2023-06-10T02:53:37;2.33;;;0.80;;
19780;SDS011;10050;55.492;13.506;2023-06-10T02:56:03;1.70;;;1.17;;
19780;SDS011;10050;55.492;13.506;2023-06-10T02:58:28;1.20;;;0.90;;
19780;SDS011;10050;55.492;13.506;2023-06-10T03:00:54;1.77;;;1.00;;
19780;SDS011;10050;55.492;13.506;2023-06-10T03:03:20;1.23;;;1.13;;
19780;SDS011;10050;55.492;13.506;2023-06-10T03:05:47;3.00;;;0.93;;
19780;SDS011;10050;55.492;13.506;2023-06-10T03:08:13;3.27;;;1.27;;
19780;SDS011;10050;55.492;13.506;2023-06-10T03:10:39;2.30;;;0.93;;
19780;SDS011;10050;55.492;13.506;2023-06-10T03:13:04;1.00;;;0.90;;
19780;SDS011;10050;55.492;13.506;2023-06-10T03:15:30;2.57;;;1.20;;
19780;SDS011;10050;55.492;13.506;2023-06-10T03:17:58;1.53;;;1.20;;
19780;SDS011;10050;55.492;13.506;2023-06-10T03:20:25;2.30;;;1.00;;
19780;SDS011;10050;55.492;13.506;2023-06-10T03:22:52;1.07;;;0.90;;
19780;SDS011;10050;55.492;13.506;2023-06-10T03:25:18;3.30;;;1.10;;
19780;SDS011;10050;55.492;13.506;2023-06-10T03:27:46;2.30;;;0.97;;
19780;SDS011;10050;55.492;13.506;2023-06-10T03:30:12;2.83;;;1.23;;
19780;SDS011;10050;55.492;13.506;2023-06-10T03:32:38;1.63;;;1.10;;
19780;SDS011;10050;55.492;13.506;2023-06-10T03:35:06;3.50;;;1.03;;
19780;SDS011;10050;55.492;13.506;2023-06-10T03:37:32;2.63;;;1.20;;
19780;SDS011;10050;55.492;13.506;2023-06-10T03:39:57;3.00;;;1.20;;
19780;SDS011;10050;55.492;13.506;2023-06-10T03:42:23;2.00;;;0.93;;
19780;SDS011;10050;55.492;13.506;2023-06-10T03:44:49;1.70;;;0.93;;
19780;SDS011;10050;55.492;13.506;2023-06-10T03:47:14;2.83;;;1.10;;
19780;SDS011;10050;55.492;13.506;2023-06-10T03:49:41;1.20;;;1.10;;
19780;SDS011;10050;55.492;13.506;2023-06-10T03:52:06;1.20;;;1.10;;
19780;SDS011;10050;55.492;13.506;2023-06-10T03:54:32;3.73;;;1.30;;
19780;SDS011;10050;55.492;13.506;2023-06-10T03:57:00;1.67;;;1.00;;
19780;SDS011;10050;55.492;13.506;2023-06-10T03:59:25;1.37;;;1.10;;
19780;SDS011;10050;55.492;13.506;2023-06-10T04:01:51;1.43;;;1.10;;
19780;SDS011;10050;55.492;13.506;2023-06-10T04:04:17;2.13;;;1.47;;
19780;SDS011;10050;55.492;13.506;2023-06-10T04:06:42;2.80;;;1.10;;
19780;SDS011;10050;55.492;13.506;2023-06-10T04:09:11;2.57;;;0.97;;
19780;SDS011;10050;55.492;13.506;2023-06-10T04:11:37;3.17;;;1.10;;
19780;SDS011;10050;55.492;13.506;2023-06-10T04:14:03;2.20;;;1.40;;
19780;SDS011;10050;55.492;13.506;2023-06-10T04:16:29;1.60;;;1.03;;
19780;SDS011;10050;55.492;13.506;2023-06-10T04:18:54;1.27;;;1.13;;
19780;SDS011;10050;55.492;13.506;2023-06-10T04:21:20;3.37;;;1.00;;
19780;SDS011;10050;55.492;13.506;2023-06-10T04:23:46;2.77;;;1.10;;
19780;SDS011;10050;55.492;13.506;2023-06-10T04:26:12;6.57;;;1.20;;
19780;SDS011;10050;55.492;13.506;2023-06-10T04:28:38;4.90;;;1.27;;
19780;SDS011;10050;55.492;13.506;2023-06-10T04:31:04;1.53;;;1.23;;
19780;SDS011;10050;55.492;13.506;2023-06-10T04:33:32;1.87;;;1.40;;
19780;SDS011;10050;55.492;13.506;2023-06-10T04:35:58;4.30;;;1.30;;
19780;SDS011;10050;55.492;13.506;2023-06-10T04:38:23;4.83;;;1.47;;
19780;SDS011;10050;55.492;13.506;2023-06-10T04:40:49;2.37;;;1.00;;
19780;SDS011;10050;55.492;13.506;2023-06-10T04:43:15;1.93;;;1.17;;
19780;SDS011;10050;55.492;13.506;2023-06-10T04:45:41;3.67;;;1.43;;
19780;SDS011;10050;55.492;13.506;2023-06-10T04:48:10;2.13;;;1.00;;
19780;SDS011;10050;55.492;13.506;2023-06-10T04:50:36;4.90;;;1.47;;
19780;SDS011;10050;55.492;13.506;2023-06-10T04:53:02;2.27;;;1.30;;
19780;SDS011;10050;55.492;13.506;2023-06-10T04:55:27;2.07;;;1.10;;
19780;SDS011;10050;55.492;13.506;2023-06-10T04:57:53;1.93;;;1.50;;
19780;SDS011;10050;55.492;13.506;2023-06-10T05:00:19;1.20;;;0.87;;
19780;SDS011;10050;55.492;13.506;2023-06-10T05:02:45;4.47;;;1.27;;
19780;SDS011;10050;55.492;13.506;2023-06-10T05:05:14;1.67;;;1.20;;
19780;SDS011;10050;55.492;13.506;2023-06-10T05:07:41;2.80;;;1.10;;
19780;SDS011;10050;55.492;13.506;2023-06-10T05:10:06;2.37;;;0.97;;
19780;SDS011;10050;55.492;13.506;2023-06-10T05:12:32;2.23;;;1.40;;
19780;SDS011;10050;55.492;13.506;2023-06-10T05:14:58;1.87;;;1.10;;
19780;SDS011;10050;55.492;13.506;2023-06-10T05:17:24;1.60;;;1.20;;
19780;SDS011;10050;55.492;13.506;2023-06-10T05:19:50;2.53;;;1.00;;
19780;SDS011;10050;55.492;13.506;2023-06-10T05:22:16;8.37;;;1.63;;
19780;SDS011;10050;55.492;13.506;2023-06-10T05:24:43;1.60;;;1.20;;
19780;SDS011;10050;55.492;13.506;2023-06-10T05:27:09;3.77;;;0.97;;
19780;SDS011;10050;55.492;13.506;2023-06-10T05:29:35;2.83;;;1.30;;
19780;SDS011;10050;55.492;13.506;2023-06-10T05:32:01;1.70;;;1.10;;
19780;SDS011;10050;55.492;13.506;2023-06-10T05:34:31;1.37;;;1.20;;
19780;SDS011;10050;55.492;13.506;2023-06-10T05:36:57;1.73;;;1.03;;
19780;SDS011;10050;55.492;13.506;2023-06-10T05:39:23;2.77;;;1.03;;
19780;SDS011;10050;55.492;13.506;2023-06-10T05:41:48;2.10;;;1.10;;
19780;SDS011;10050;55.492;13.506;2023-06-10T05:44:14;2.27;;;0.97;;
19780;SDS011;10050;55.492;13.506;2023-06-10T05:46:40;2.27;;;1.07;;
19780;SDS011;10050;55.492;13.506;2023-06-10T05:49:05;1.43;;;0.97;;
19780;SDS011;10050;55.492;13.506;2023-06-10T05:51:31;4.97;;;1.13;;
19780;SDS011;10050;55.492;13.506;2023-06-10T05:53:57;3.13;;;1.00;;
19780;SDS011;10050;55.492;13.506;2023-06-10T05:56:22;4.03;;;1.37;;
19780;SDS011;10050;55.492;13.506;2023-06-10T05:58:48;1.67;;;0.93;;
19780;SDS011;10050;55.492;13.506;2023-06-10T06:01:14;3.33;;;1.00;;
19780;SDS011;10050;55.492;13.506;2023-06-10T06:03:40;2.93;;;1.10;;
19780;SDS011;10050;55.492;13.506;2023-06-10T06:06:06;1.90;;;1.13;;
19780;SDS011;10050;55.492;13.506;2023-06-10T06:08:32;1.30;;;0.90;;
19780;SDS011;10050;55.492;13.506;2023-06-10T06:11:00;2.20;;;1.03;;
19780;SDS011;10050;55.492;13.506;2023-06-10T06:13:26;1.77;;;0.97;;
19780;SDS011;10050;55.492;13.506;2023-06-10T06:15:52;1.57;;;0.97;;
19780;SDS011;10050;55.492;13.506;2023-06-10T06:18:17;1.13;;;0.90;;
19780;SDS011;10050;55.492;13.506;2023-06-10T06:20:43;1.80;;;0.93;;
19780;SDS011;10050;55.492;13.506;2023-06-10T06:23:09;3.57;;;1.23;;
19780;SDS011;10050;55.492;13.506;2023-06-10T06:25:36;3.27;;;1.13;;
19780;SDS011;10050;55.492;13.506;2023-06-10T06:28:03;4.10;;;1.27;;
19780;SDS011;10050;55.492;13.506;2023-06-10T06:30:34;1.97;;;1.03;;
19780;SDS011;10050;55.492;13.506;2023-06-10T06:33:00;3.40;;;1.20;;
19780;SDS011;10050;55.492;13.506;2023-06-10T06:35:25;2.47;;;1.20;;
19780;SDS011;10050;55.492;13.506;2023-06-10T06:37:51;1.17;;;0.90;;
19780;SDS011;10050;55.492;13.506;2023-06-10T06:40:17;5.53;;;1.13;;
19780;SDS011;10050;55.492;13.506;2023-06-10T06:42:42;4.97;;;1.00;;
19780;SDS011;10050;55.492;13.506;2023-06-10T06:45:08;2.57;;;1.07;;
19780;SDS011;10050;55.492;13.506;2023-06-10T06:47:34;1.33;;;1.00;;
19780;SDS011;10050;55.492;13.506;2023-06-10T06:50:00;1.43;;;1.00;;
19780;SDS011;10050;55.492;13.506;2023-06-10T06:52:25;1.47;;;1.10;;
19780;SDS011;10050;55.492;13.506;2023-06-10T06:54:51;0.87;;;0.80;;
19780;SDS011;10050;55.492;13.506;2023-06-10T06:57:16;3.23;;;0.90;;
19780;SDS011;10050;55.492;13.506;2023-06-10T06:59:42;3.57;;;1.00;;
19780;SDS011;10050;55.492;13.506;2023-06-10T07:02:08;1.87;;;1.10;;
19780;SDS011;10050;55.492;13.506;2023-06-10T07:04:33;0.97;;;0.80;;
19780;SDS011;10050;55.492;13.506;2023-06-10T07:06:59;1.57;;;1.10;;
19780;SDS011;10050;55.492;13.506;2023-06-10T07:09:25;3.53;;;1.00;;
19780;SDS011;10050;55.492;13.506;2023-06-10T07:11:51;1.73;;;1.00;;
19780;SDS011;10050;55.492;13.506;2023-06-10T07:14:16;3.00;;;1.00;;
19780;SDS011;10050;55.492;13.506;2023-06-10T07:16:42;3.20;;;1.00;;
19780;SDS011;10050;55.492;13.506;2023-06-10T07:19:10;3.40;;;1.10;;
19780;SDS011;10050;55.492;13.506;2023-06-10T07:21:35;2.60;;;1.20;;
19780;SDS011;10050;55.492;13.506;2023-06-10T07:24:01;3.93;;;1.13;;
19780;SDS011;10050;55.492;13.506;2023-06-10T07:26:27;3.27;;;1.00;;
19780;SDS011;10050;55.492;13.506;2023-06-10T07:28:53;2.03;;;0.90;;
19780;SDS011;10050;55.492;13.506;2023-06-10T07:31:19;1.63;;;1.10;;
19780;SDS011;10050;55.492;13.506;2023-06-10T07:33:44;3.10;;;1.23;;
19780;SDS011;10050;55.492;13.506;2023-06-10T07:36:11;3.07;;;0.90;;
19780;SDS011;10050;55.492;13.506;2023-06-10T07:38:37;3.07;;;1.20;;
19780;SDS011;10050;55.492;13.506;2023-06-10T07:41:05;1.60;;;0.80;;
19780;SDS011;10050;55.492;13.506;2023-06-10T07:43:31;1.20;;;1.07;;
19780;SDS011;10050;55.492;13.506;2023-06-10T07:45:56;1.43;;;1.20;;
19780;SDS011;10050;55.492;13.506;2023-06-10T07:48:22;2.23;;;1.33;;
19780;SDS011;10050;55.492;13.506;2023-06-10T07:50:47;1.03;;;0.93;;
19780;SDS011;10050;55.492;13.506;2023-06-10T07:53:13;4.00;;;1.27;;
19780;SDS011;10050;55.492;13.506;2023-06-10T07:55:39;3.70;;;1.33;;
19780;SDS011;10050;55.492;13.506;2023-06-10T07:58:04;5.23;;;1.00;;
19780;SDS011;10050;55.492;13.506;2023-06-10T08:00:30;3.93;;;1.20;;
19780;SDS011;10050;55.492;13.506;2023-06-10T08:02:58;6.43;;;1.03;;
19780;SDS011;10050;55.492;13.506;2023-06-10T08:05:24;1.30;;;0.80;;
19780;SDS011;10050;55.492;13.506;2023-06-10T08:07:49;3.70;;;1.20;;
19780;SDS011;10050;55.492;13.506;2023-06-10T08:10:15;5.37;;;1.33;;
19780;SDS011;10050;55.492;13.506;2023-06-10T08:12:40;2.87;;;1.17;;
19780;SDS011;10050;55.492;13.506;2023-06-10T08:15:06;1.50;;;1.27;;
19780;SDS011;10050;55.492;13.506;2023-06-10T08:17:32;1.57;;;1.13;;
19780;SDS011;10050;55.492;13.506;2023-06-10T08:19:58;1.97;;;1.10;;
19780;SDS011;10050;55.492;13.506;2023-06-10T08:22:24;2.40;;;0.93;;
19780;SDS011;10050;55.492;13.506;2023-06-10T08:24:49;2.87;;;1.10;;
19780;SDS011;10050;55.492;13.506;2023-06-10T08:27:15;6.70;;;1.20;;
19780;SDS011;10050;55.492;13.506;2023-06-10T08:29:40;2.47;;;1.03;;
19780;SDS011;10050;55.492;13.506;2023-06-10T08:32:06;6.73;;;1.20;;
19780;SDS011;10050;55.492;13.506;2023-06-10T08:34:33;1.30;;;0.93;;
19780;SDS011;10050;55.492;13.506;2023-06-10T08:37:00;6.00;;;1.30;;
19780;SDS011;10050;55.492;13.506;2023-06-10T08:39:26;7.50;;;1.20;;
19780;SDS011;10050;55.492;13.506;2023-06-10T08:42:06;4.73;;;1.27;;
19780;SDS011;10050;55.492;13.506;2023-06-10T08:44:58;3.67;;;1.20;;
19780;SDS011;10050;55.492;13.506;2023-06-10T08:47:30;4.03;;;1.40;;
19780;SDS011;10050;55.492;13.506;2023-06-10T08:50:03;2.33;;;1.13;;
19780;SDS011;10050;55.492;13.506;2023-06-10T08:52:33;4.90;;;1.50;;
19780;SDS011;10050;55.492;13.506;2023-06-10T08:55:08;2.17;;;1.13;;
19780;SDS011;10050;55.492;13.506;2023-06-10T08:57:39;3.57;;;1.40;;
19780;SDS011;10050;55.492;13.506;2023-06-10T09:00:10;1.27;;;1.03;;
19780;SDS011;10050;55.492;13.506;2023-06-10T09:02:38;3.23;;;1.30;;
19780;SDS011;10050;55.492;13.506;2023-06-10T09:05:08;2.77;;;1.50;;
19780;SDS011;10050;55.492;13.506;2023-06-10T09:07:34;5.07;;;1.03;;
19780;SDS011;10050;55.492;13.506;2023-06-10T09:10:01;6.27;;;1.50;;
19780;SDS011;10050;55.492;13.506;2023-06-10T09:12:32;3.20;;;1.20;;
19780;SDS011;10050;55.492;13.506;2023-06-10T09:14:58;3.77;;;1.50;;
19780;SDS011;10050;55.492;13.506;2023-06-10T09:17:24;1.97;;;1.23;;
19780;SDS011;10050;55.492;13.506;2023-06-10T09:19:50;4.50;;;1.80;;
19780;SDS011;10050;55.492;13.506;2023-06-10T09:22:20;5.47;;;1.67;;
19780;SDS011;10050;55.492;13.506;2023-06-10T09:24:47;1.37;;;1.10;;
19780;SDS011;10050;55.492;13.506;2023-06-10T09:27:13;7.00;;;1.37;;
19780;SDS011;10050;55.492;13.506;2023-06-10T09:29:51;7.47;;;1.40;;
19780;SDS011;10050;55.492;13.506;2023-06-10T09:32:21;3.03;;;1.40;;
19780;SDS011;10050;55.492;13.506;2023-06-10T09:34:47;1.30;;;0.90;;
19780;SDS011;10050;55.492;13.506;2023-06-10T09:37:13;7.60;;;1.50;;
19780;SDS011;10050;55.492;13.506;2023-06-10T09:40:05;5.00;;;1.77;;
19780;SDS011;10050;55.492;13.506;2023-06-10T09:42:35;4.63;;;1.50;;
19780;SDS011;10050;55.492;13.506;2023-06-10T09:45:03;3.23;;;1.20;;
19780;SDS011;10050;55.492;13.506;2023-06-10T09:47:30;3.13;;;1.40;;
19780;SDS011;10050;55.492;13.506;2023-06-10T09:49:56;3.30;;;1.30;;
19780;SDS011;10050;55.492;13.506;2023-06-10T09:52:25;5.27;;;1.37;;
19780;SDS011;10050;55.492;13.506;2023-06-10T09:54:52;2.23;;;1.10;;
19780;SDS011;10050;55.492;13.506;2023-06-10T09:57:19;3.17;;;1.33;;
19780;SDS011;10050;55.492;13.506;2023-06-10T09:59:46;4.70;;;1.70;;
19780;SDS011;10050;55.492;13.506;2023-06-10T10:02:15;4.07;;;1.40;;
19780;SDS011;10050;55.492;13.506;2023-06-10T10:04:44;3.03;;;1.37;;
19780;SDS011;10050;55.492;13.506;2023-06-10T10:07:10;4.07;;;1.60;;
19780;SDS011;10050;55.492;13.506;2023-06-10T10:09:37;3.30;;;1.53;;
19780;SDS011;10050;55.492;13.506;2023-06-10T10:12:05;4.23;;;1.27;;
19780;SDS011;10050;55.492;13.506;2023-06-10T10:14:37;3.40;;;1.43;;
19780;SDS011;10050;55.492;13.506;2023-06-10T10:17:10;3.70;;;1.77;;
19780;SDS011;10050;55.492;13.506;2023-06-10T10:19:39;2.63;;;1.70;;
19780;SDS011;10050;55.492;13.506;2023-06-10T10:22:15;4.10;;;1.70;;
19780;SDS011;10050;55.492;13.506;2023-06-10T10:24:52;4.60;;;1.43;;
19780;SDS011;10050;55.492;13.506;2023-06-10T10:27:21;5.73;;;1.73;;
19780;SDS011;10050;55.492;13.506;2023-06-10T10:30:00;4.77;;;1.60;;
19780;SDS011;10050;55.492;13.506;2023-06-10T10:32:32;2.83;;;1.47;;
19780;SDS011;10050;55.492;13.506;2023-06-10T10:37:38;7.77;;;1.53;;
19780;SDS011;10050;55.492;13.506;2023-06-10T10:40:04;6.87;;;1.60;;
19780;SDS011;10050;55.492;13.506;2023-06-10T10:42:31;2.50;;;1.50;;
19780;SDS011;10050;55.492;13.506;2023-06-10T10:44:58;4.40;;;1.60;;
19780;SDS011;10050;55.492;13.506;2023-06-10T10:47:25;3.60;;;1.77;;
19780;SDS011;10050;55.492;13.506;2023-06-10T10:49:55;2.20;;;1.50;;
19780;SDS011;10050;55.492;13.506;2023-06-10T10:52:24;2.20;;;1.83;;
19780;SDS011;10050;55.492;13.506;2023-06-10T10:54:50;2.93;;;1.73;;
19780;SDS011;10050;55.492;13.506;2023-06-10T11:05:11;4.03;;;1.70;;
19780;SDS011;10050;55.492;13.506;2023-06-10T11:07:38;4.93;;;1.53;;
19780;SDS011;10050;55.492;13.506;2023-06-10T11:10:08;4.30;;;1.63;;
19780;SDS011;10050;55.492;13.506;2023-06-10T11:15:13;3.53;;;1.70;;
19780;SDS011;10050;55.492;13.506;2023-06-10T11:31:23;5.23;;;1.90;;
19780;SDS011;10050;55.492;13.506;2023-06-10T11:33:52;4.80;;;1.90;;
19780;SDS011;10050;55.492;13.506;2023-06-10T11:36:19;5.73;;;2.13;;
19780;SDS011;10050;55.492;13.506;2023-06-10T11:38:44;4.63;;;1.70;;
19780;SDS011;10050;55.492;13.506;2023-06-10T11:41:13;3.50;;;1.80;;
19780;SDS011;10050;55.492;13.506;2023-06-10T11:43:43;1.77;;;1.50;;
19780;SDS011;10050;55.492;13.506;2023-06-10T11:46:09;3.23;;;1.47;;
19780;SDS011;10050;55.492;13.506;2023-06-10T11:48:39;3.53;;;1.73;;
19780;SDS011;10050;55.492;13.506;2023-06-10T11:51:13;5.23;;;1.60;;
19780;SDS011;10050;55.492;13.506;2023-06-10T11:53:38;4.93;;;1.83;;
19780;SDS011;10050;55.492;13.506;2023-06-10T11:56:04;3.63;;;1.53;;
19780;SDS011;10050;55.492;13.506;2023-06-10T11:58:29;6.23;;;1.83;;
19780;SDS011;10050;55.492;13.506;2023-06-10T12:00:55;3.43;;;1.40;;
19780;SDS011;10050;55.492;13.506;2023-06-10T12:03:26;2.80;;;1.73;;
19780;SDS011;10050;55.492;13.506;2023-06-10T12:06:04;3.13;;;1.70;;
19780;SDS011;10050;55.492;13.506;2023-06-10T12:08:30;10.47;;;1.63;;
19780;SDS011;10050;55.492;13.506;2023-06-10T12:10:57;2.83;;;1.43;;
19780;SDS011;10050;55.492;13.506;2023-06-10T12:13:23;4.63;;;1.40;;
19780;SDS011;10050;55.492;13.506;2023-06-10T12:15:51;3.03;;;1.70;;
19780;SDS011;10050;55.492;13.506;2023-06-10T12:18:20;5.83;;;1.60;;
19780;SDS011;10050;55.492;13.506;2023-06-10T12:20:47;1.47;;;1.37;;
19780;SDS011;10050;55.492;13.506;2023-06-10T12:23:13;2.00;;;1.40;;
19780;SDS011;10050;55.492;13.506;2023-06-10T12:25:49;1.63;;;1.30;;
19780;SDS011;10050;55.492;13.506;2023-06-10T12:28:16;1.87;;;1.47;;
19780;SDS011;10050;55.492;13.506;2023-06-10T12:30:45;5.07;;;1.57;;
19780;SDS011;10050;55.492;13.506;2023-06-10T12:33:20;4.10;;;1.37;;
19780;SDS011;10050;55.492;13.506;2023-06-10T12:35:55;3.07;;;1.60;;
19780;SDS011;10050;55.492;13.506;2023-06-10T12:38:23;2.83;;;1.60;;
19780;SDS011;10050;55.492;13.506;2023-06-10T12:40:53;5.73;;;1.70;;
19780;SDS011;10050;55.492;13.506;2023-06-10T12:43:22;4.20;;;1.20;;
19780;SDS011;10050;55.492;13.506;2023-06-10T12:45:48;2.53;;;1.23;;
19780;SDS011;10050;55.492;13.506;2023-06-10T12:50:51;2.97;;;1.30;;
19780;SDS011;10050;55.492;13.506;2023-06-10T12:53:18;2.87;;;1.37;;
19780;SDS011;10050;55.492;13.506;2023-06-10T12:55:44;4.37;;;1.60;;
19780;SDS011;10050;55.492;13.506;2023-06-10T12:58:11;4.67;;;1.30;;
19780;SDS011;10050;55.492;13.506;2023-06-10T13:00:37;2.00;;;1.03;;
19780;SDS011;10050;55.492;13.506;2023-06-10T13:03:03;1.53;;;1.30;;
19780;SDS011;10050;55.492;13.506;2023-06-10T13:05:30;1.47;;;1.37;;
19780;SDS011;10050;55.492;13.506;2023-06-10T13:07:56;3.63;;;1.67;;
19780;SDS011;10050;55.492;13.506;2023-06-10T13:10:22;1.87;;;1.20;;
19780;SDS011;10050;55.492;13.506;2023-06-10T13:12:49;2.97;;;1.53;;
19780;SDS011;10050;55.492;13.506;2023-06-10T13:15:15;5.17;;;1.40;;
19780;SDS011;10050;55.492;13.506;2023-06-10T13:17:44;1.20;;;1.10;;
19780;SDS011;10050;55.492;13.506;2023-06-10T13:20:14;4.80;;;1.47;;
19780;SDS011;10050;55.492;13.506;2023-06-10T13:22:41;4.90;;;1.37;;
19780;SDS011;10050;55.492;13.506;2023-06-10T13:25:07;4.00;;;1.40;;
19780;SDS011;10050;55.492;13.506;2023-06-10T13:27:34;6.03;;;1.60;;
19780;SDS011;10050;55.492;13.506;2023-06-10T13:30:00;3.70;;;1.40;;
19780;SDS011;10050;55.492;13.506;2023-06-10T13:32:26;2.37;;;1.10;;
19780;SDS011;10050;55.492;13.506;2023-06-10T13:34:51;3.43;;;1.27;;
19780;SDS011;10050;55.492;13.506;2023-06-10T13:37:18;2.23;;;1.37;;
19780;SDS011;10050;55.492;13.506;2023-06-10T13:39:44;4.43;;;2.10;;
19780;SDS011;10050;55.492;13.506;2023-06-10T13:42:15;3.53;;;1.43;;
19780;SDS011;10050;55.492;13.506;2023-06-10T13:44:45;1.27;;;1.17;;
19780;SDS011;10050;55.492;13.506;2023-06-10T13:47:12;1.67;;;1.00;;
19780;SDS011;10050;55.492;13.506;2023-06-10T13:49:38;6.13;;;1.47;;
19780;SDS011;10050;55.492;13.506;2023-06-10T13:52:05;4.50;;;1.30;;
19780;SDS011;10050;55.492;13.506;2023-06-10T13:54:31;5.30;;;1.37;;
19780;SDS011;10050;55.492;13.506;2023-06-10T13:56:57;2.17;;;1.33;;
19780;SDS011;10050;55.492;13.506;2023-06-10T13:59:24;1.43;;;1.13;;
19780;SDS011;10050;55.492;13.506;2023-06-10T14:01:49;2.53;;;1.13;;
19780;SDS011;10050;55.492;13.506;2023-06-10T14:04:15;1.73;;;1.03;;
19780;SDS011;10050;55.492;13.506;2023-06-10T14:06:44;2.37;;;1.30;;
19780;SDS011;10050;55.492;13.506;2023-06-10T14:09:11;4.20;;;1.40;;
19780;SDS011;10050;55.492;13.506;2023-06-10T14:11:38;1.40;;;1.20;;
19780;SDS011;10050;55.492;13.506;2023-06-10T14:14:06;3.77;;;1.33;;
19780;SDS011;10050;55.492;13.506;2023-06-10T14:16:31;2.37;;;1.20;;
19780;SDS011;10050;55.492;13.506;2023-06-10T14:18:57;1.00;;;0.90;;
19780;SDS011;10050;55.492;13.506;2023-06-10T14:21:22;2.40;;;1.20;;
19780;SDS011;10050;55.492;13.506;2023-06-10T14:23:48;3.33;;;1.40;;
19780;SDS011;10050;55.492;13.506;2023-06-10T14:26:16;3.30;;;1.30;;
19780;SDS011;10050;55.492;13.506;2023-06-10T14:28:42;4.20;;;1.40;;
19780;SDS011;10050;55.492;13.506;2023-06-10T14:31:08;1.53;;;1.00;;
19780;SDS011;10050;55.492;13.506;2023-06-10T14:33:33;1.17;;;1.07;;
19780;SDS011;10050;55.492;13.506;2023-06-10T14:35:59;1.30;;;1.10;;
19780;SDS011;10050;55.492;13.506;2023-06-10T14:38:25;1.97;;;1.10;;
19780;SDS011;10050;55.492;13.506;2023-06-10T14:40:51;6.07;;;1.20;;
19780;SDS011;10050;55.492;13.506;2023-06-10T14:43:17;5.60;;;1.67;;
19780;SDS011;10050;55.492;13.506;2023-06-10T14:45:43;6.83;;;1.17;;
19780;SDS011;10050;55.492;13.506;2023-06-10T14:48:10;1.40;;;0.90;;
19780;SDS011;10050;55.492;13.506;2023-06-10T14:50:36;1.80;;;1.20;;
19780;SDS011;10050;55.492;13.506;2023-06-10T14:53:02;4.33;;;1.10;;
19780;SDS011;10050;55.492;13.506;2023-06-10T14:55:28;3.20;;;0.70;;
19780;SDS011;10050;55.492;13.506;2023-06-10T14:57:54;3.97;;;1.00;;
19780;SDS011;10050;55.492;13.506;2023-06-10T15:00:21;1.10;;;1.00;;
19780;SDS011;10050;55.492;13.506;2023-06-10T15:02:48;3.73;;;1.13;;
19780;SDS011;10050;55.492;13.506;2023-06-10T15:05:15;3.80;;;1.03;;
19780;SDS011;10050;55.492;13.506;2023-06-10T15:07:42;5.33;;;1.13;;